createdAt,value
2022-09-20T00:01:20.890Z,1.50
2022-09-20T00:03:50.784Z,1.73
2022-09-20T00:06:23.216Z,1.40
2022-09-20T00:08:51.525Z,1.77
2022-09-20T00:11:21.998Z,1.40
2022-09-20T00:13:52.329Z,1.60
2022-09-20T00:16:23.829Z,1.60
2022-09-20T00:18:53.484Z,1.73
2022-09-20T00:21:26.639Z,1.50
2022-09-20T00:23:56.634Z,1.80
2022-09-20T00:26:25.181Z,2.33
2022-09-20T00:28:53.489Z,2.03
2022-09-20T00:31:21.696Z,1.40
2022-09-20T00:34:07.415Z,1.43
2022-09-20T00:36:36.851Z,1.60
2022-09-20T00:39:05.009Z,1.50
2022-09-20T00:41:34.169Z,1.60
2022-09-20T00:44:03.911Z,1.60
2022-09-20T00:46:38.451Z,1.90
2022-09-20T00:49:13.238Z,2.30
2022-09-20T00:51:47.199Z,1.90
2022-09-20T00:54:20.293Z,1.60
2022-09-20T00:56:49.440Z,1.30
2022-09-20T00:59:21.023Z,1.90
2022-09-20T01:01:53.418Z,1.80
2022-09-20T01:04:25.217Z,1.50
2022-09-20T01:06:58.790Z,1.30
2022-09-20T01:09:27.063Z,1.73
2022-09-20T01:11:57.021Z,1.40
2022-09-20T01:14:26.446Z,1.70
2022-09-20T01:16:58.613Z,1.67
2022-09-20T01:19:36.235Z,1.70
2022-09-20T01:22:11.378Z,1.57
2022-09-20T01:24:47.226Z,1.80
2022-09-20T01:27:22.725Z,1.37
2022-09-20T01:30:06.073Z,1.80
2022-09-20T01:32:45.356Z,1.20
2022-09-20T01:35:14.629Z,1.47
2022-09-20T01:37:50.950Z,2.07
2022-09-20T01:40:28.709Z,1.90
2022-09-20T01:43:05.062Z,1.87
2022-09-20T01:45:34.683Z,2.10
2022-09-20T01:48:13.760Z,1.87
2022-09-20T01:51:07.533Z,1.97
2022-09-20T01:54:18.629Z,1.70
2022-09-20T01:57:27.335Z,1.60
2022-09-20T02:00:13.113Z,1.70
2022-09-20T02:03:15.560Z,1.63
2022-09-20T02:06:07.607Z,1.57
2022-09-20T02:09:14.348Z,1.60
2022-09-20T02:12:05.171Z,1.80
2022-09-20T02:14:46.266Z,1.70
2022-09-20T02:17:19.205Z,1.77
2022-09-20T02:20:07.758Z,1.97
2022-09-20T02:22:49.203Z,2.27
2022-09-20T02:25:34.152Z,2.30
2022-09-20T02:28:19.587Z,1.77
2022-09-20T02:30:56.853Z,1.77
2022-09-20T02:33:43.066Z,1.73
2022-09-20T02:36:40.262Z,1.90
2022-09-20T02:39:13.915Z,1.70
2022-09-20T02:41:55.770Z,1.80
2022-09-20T02:44:47.285Z,1.73
2022-09-20T02:47:24.184Z,1.80
2022-09-20T02:50:15.575Z,1.50
2022-09-20T02:52:55.788Z,1.53
2022-09-20T02:55:34.898Z,1.87
2022-09-20T02:58:10.504Z,1.57
2022-09-20T03:00:45.589Z,1.77
2022-09-20T03:03:23.919Z,1.87
2022-09-20T03:06:01.141Z,1.70
2022-09-20T03:08:38.178Z,1.80
2022-09-20T03:11:17.018Z,1.80
2022-09-20T03:13:59.825Z,1.80
2022-09-20T03:16:41.491Z,1.57
2022-09-20T03:19:21.650Z,1.63
2022-09-20T03:22:01.810Z,1.67
2022-09-20T03:24:43.314Z,1.50
2022-09-20T03:27:20.914Z,1.50
2022-09-20T03:30:02.405Z,1.50
2022-09-20T03:32:48.284Z,1.70
2022-09-20T03:35:28.523Z,1.67
2022-09-20T03:38:11.609Z,1.50
2022-09-20T03:41:03.341Z,1.60
2022-09-20T03:43:49.949Z,1.40
2022-09-20T03:46:20.424Z,1.60
2022-09-20T03:49:10.949Z,1.30
2022-09-20T03:51:48.986Z,1.40
2022-09-20T03:54:48.525Z,1.20
2022-09-20T03:57:40.968Z,1.40
2022-09-20T04:00:23.670Z,1.43
2022-09-20T04:03:15.309Z,1.40
2022-09-20T04:05:55.017Z,1.50
2022-09-20T04:08:41.837Z,1.40
2022-09-20T04:11:18.979Z,1.87
2022-09-20T04:13:55.932Z,1.90
2022-09-20T04:16:33.448Z,1.40
2022-09-20T04:19:11.518Z,1.93
2022-09-20T04:21:44.951Z,1.40
2022-09-20T04:24:21.288Z,1.80
2022-09-20T04:26:54.515Z,1.63
2022-09-20T04:29:34.085Z,1.70
2022-09-20T04:32:10.770Z,1.33
2022-09-20T04:35:01.690Z,1.30
2022-09-20T04:37:33.421Z,1.50
2022-09-20T04:40:13.843Z,1.40
2022-09-20T04:43:32.984Z,1.20
2022-09-20T04:46:25.854Z,1.60
2022-09-20T04:49:36.942Z,1.50
2022-09-20T04:52:35.426Z,1.93
2022-09-20T04:55:35.761Z,1.43
2022-09-20T04:58:33.977Z,1.50
2022-09-20T05:01:42.017Z,1.53
2022-09-20T05:04:40.616Z,1.33
2022-09-20T05:07:43.713Z,1.27
2022-09-20T05:10:52.437Z,1.30
2022-09-20T05:13:33.348Z,1.47
2022-09-20T05:16:06.525Z,1.40
2022-09-20T05:19:10.161Z,1.53
2022-09-20T05:22:13.966Z,1.40
2022-09-20T05:25:07.283Z,1.20
2022-09-20T05:27:42.790Z,1.30
2022-09-20T05:30:20.553Z,1.27
2022-09-20T05:32:58.713Z,1.30
2022-09-20T05:35:33.700Z,1.60
2022-09-20T05:38:12.435Z,1.50
2022-09-20T05:40:59.944Z,1.50
2022-09-20T05:43:32.360Z,1.53
2022-09-20T05:46:11.520Z,1.40
2022-09-20T05:48:47.918Z,1.50
2022-09-20T05:51:32.750Z,1.37
2022-09-20T05:54:26.786Z,1.40
2022-09-20T05:57:08.349Z,1.70
2022-09-20T05:59:46.059Z,1.47
2022-09-20T06:02:29.092Z,1.23
2022-09-20T06:05:04.081Z,1.57
2022-09-20T06:07:53.521Z,1.47
2022-09-20T06:10:53.906Z,1.27
2022-09-20T06:13:37.217Z,1.40
2022-09-20T06:16:07.038Z,1.43
2022-09-20T06:18:41.622Z,1.73
2022-09-20T06:21:20.481Z,2.10
2022-09-20T06:23:50.109Z,1.97
2022-09-20T06:26:23.225Z,1.77
2022-09-20T06:28:58.413Z,1.90
2022-09-20T06:31:27.180Z,1.70
2022-09-20T06:33:59.778Z,1.60
2022-09-20T06:36:49.760Z,1.37
2022-09-20T06:39:47.086Z,1.77
2022-09-20T06:42:15.090Z,1.43
2022-09-20T06:44:43.318Z,1.60
2022-09-20T06:47:12.258Z,1.30
2022-09-20T06:49:42.462Z,1.50
2022-09-20T06:52:15.447Z,1.90
2022-09-20T06:54:46.118Z,1.17
2022-09-20T06:57:17.890Z,1.47
2022-09-20T06:59:46.605Z,1.30
2022-09-20T07:02:14.685Z,1.47
2022-09-20T07:04:43.606Z,1.20
2022-09-20T07:07:17.214Z,1.10
2022-09-20T07:09:46.630Z,1.00
2022-09-20T07:12:14.708Z,1.33
2022-09-20T07:14:43.067Z,1.27
2022-09-20T07:17:11.273Z,1.30
2022-09-20T07:19:39.314Z,1.00
2022-09-20T07:22:07.350Z,1.43
2022-09-20T07:24:35.357Z,0.97
2022-09-20T07:27:06.467Z,1.20
2022-09-20T07:29:35.368Z,1.10
2022-09-20T07:32:03.663Z,1.00
2022-09-20T07:34:32.084Z,1.00
2022-09-20T07:37:00.681Z,0.80
2022-09-20T07:39:28.693Z,1.17
2022-09-20T07:41:56.951Z,1.03
2022-09-20T07:44:27.735Z,1.40
2022-09-20T07:46:57.955Z,1.10
2022-09-20T07:49:27.052Z,1.10
2022-09-20T07:51:55.470Z,1.03
2022-09-20T07:54:23.495Z,1.20
2022-09-20T07:56:51.501Z,1.27
2022-09-20T07:59:19.509Z,1.60
2022-09-20T08:01:48.847Z,1.30
2022-09-20T08:04:16.896Z,1.40
2022-09-20T08:06:46.292Z,1.30
2022-09-20T08:09:14.886Z,1.10
2022-09-20T08:11:43.909Z,1.13
2022-09-20T08:14:15.031Z,1.30
2022-09-20T08:16:44.658Z,1.60
2022-09-20T08:19:18.778Z,1.67
2022-09-20T08:21:46.777Z,1.27
2022-09-20T08:24:16.321Z,1.30
2022-09-20T08:26:44.940Z,1.40
2022-09-20T08:29:15.006Z,1.10
2022-09-20T08:31:43.207Z,1.60
2022-09-20T08:34:14.879Z,1.33
2022-09-20T08:36:46.935Z,1.40
2022-09-20T08:42:14.225Z,1.30
2022-09-20T08:44:57.826Z,1.50
2022-09-20T08:47:28.860Z,1.73
2022-09-20T08:49:57.559Z,2.00
2022-09-20T08:52:36.187Z,1.40
2022-09-20T08:55:13.438Z,1.40
2022-09-20T08:57:41.464Z,1.47
2022-09-20T09:00:18.646Z,1.20
2022-09-20T09:02:47.240Z,1.40
2022-09-20T09:05:34.887Z,1.13
2022-09-20T09:08:16.599Z,1.60
2022-09-20T09:10:47.775Z,1.57
2022-09-20T09:13:23.360Z,1.30
2022-09-20T09:15:57.192Z,1.63
2022-09-20T09:18:33.094Z,1.97
2022-09-20T09:21:04.144Z,1.70
2022-09-20T09:23:42.238Z,1.30
2022-09-20T09:26:18.761Z,1.53
2022-09-20T09:28:46.798Z,1.30
2022-09-20T09:31:25.640Z,1.53
2022-09-20T09:33:53.734Z,1.50
2022-09-20T09:36:25.929Z,1.50
2022-09-20T09:39:17.201Z,1.40
2022-09-20T09:41:46.394Z,1.37
2022-09-20T09:44:24.230Z,1.17
2022-09-20T09:46:53.582Z,1.20
2022-09-20T09:49:23.826Z,1.30
2022-09-20T09:52:08.260Z,1.10
2022-09-20T09:54:40.316Z,1.30
2022-09-20T09:57:24.484Z,1.10
2022-09-20T10:00:14.641Z,1.37
2022-09-20T10:03:30.425Z,1.07
2022-09-20T10:06:08.565Z,1.20
2022-09-20T10:08:47.224Z,1.27
2022-09-20T10:11:31.972Z,1.10
2022-09-20T10:14:13.401Z,1.53
2022-09-20T10:16:54.226Z,1.33
2022-09-20T10:19:44.311Z,1.53
2022-09-20T10:22:21.617Z,1.53
2022-09-20T10:25:03.031Z,1.70
2022-09-20T10:27:42.912Z,1.27
2022-09-20T10:30:13.766Z,1.63
2022-09-20T10:32:59.410Z,1.60
2022-09-20T10:35:35.685Z,1.10
2022-09-20T10:38:19.641Z,1.23
2022-09-20T10:41:26.027Z,1.33
2022-09-20T10:44:19.329Z,1.20
2022-09-20T10:47:00.164Z,1.10
2022-09-20T10:49:34.702Z,1.30
2022-09-20T10:52:24.073Z,1.10
2022-09-20T10:55:27.924Z,1.37
2022-09-20T10:58:36.547Z,1.20
2022-09-20T11:01:15.388Z,1.40
2022-09-20T11:04:11.544Z,1.67
2022-09-20T11:06:50.303Z,1.43
2022-09-20T11:09:22.478Z,1.40
2022-09-20T11:11:54.873Z,1.50
2022-09-20T11:14:33.353Z,1.10
2022-09-20T11:17:08.460Z,1.40
2022-09-20T11:19:48.850Z,1.30
2022-09-20T11:22:21.034Z,1.30
2022-09-20T11:24:56.966Z,1.57
2022-09-20T11:27:29.671Z,1.40
2022-09-20T11:30:03.079Z,1.47
2022-09-20T11:32:41.247Z,1.13
2022-09-20T11:35:26.922Z,1.23
2022-09-20T11:38:04.126Z,1.30
2022-09-20T11:40:38.028Z,1.10
2022-09-20T11:43:09.297Z,1.13
2022-09-20T11:45:41.791Z,1.40
2022-09-20T11:48:18.102Z,1.30
2022-09-20T11:51:05.261Z,1.40
2022-09-20T11:53:54.212Z,1.10
2022-09-20T11:56:24.957Z,1.40
2022-09-20T11:58:55.178Z,1.30
2022-09-20T12:01:28.908Z,1.30
2022-09-20T12:04:27.880Z,1.30
2022-09-20T12:07:07.659Z,1.20
2022-09-20T12:09:40.530Z,1.13
2022-09-20T12:12:20.544Z,1.23
2022-09-20T12:14:55.983Z,1.37
2022-09-20T12:18:04.337Z,1.27
2022-09-20T12:21:09.002Z,1.20
2022-09-20T12:24:24.881Z,1.13
2022-09-20T12:26:57.283Z,1.27
2022-09-20T12:29:54.531Z,0.93
2022-09-20T12:32:54.054Z,1.03
2022-09-20T12:36:01.613Z,1.30
2022-09-20T12:38:37.890Z,1.03
2022-09-20T12:41:15.761Z,1.10
2022-09-20T12:43:57.390Z,1.27
2022-09-20T12:46:33.457Z,1.00
2022-09-20T12:49:51.974Z,1.17
2022-09-20T12:52:53.432Z,1.20
2022-09-20T12:55:46.122Z,1.00
2022-09-20T12:58:32.304Z,1.40
2022-09-20T13:01:30.242Z,1.10
2022-09-20T13:04:32.310Z,1.20
2022-09-20T13:07:44.838Z,1.10
2022-09-20T13:10:29.117Z,1.03
2022-09-20T13:13:02.853Z,1.30
2022-09-20T13:15:33.067Z,1.77
2022-09-20T13:18:03.061Z,1.10
2022-09-20T13:20:34.836Z,1.17
2022-09-20T13:23:06.293Z,1.20
2022-09-20T13:25:35.158Z,1.40
2022-09-20T13:28:21.107Z,1.03
2022-09-20T13:30:49.442Z,1.07
2022-09-20T13:33:22.811Z,0.90
2022-09-20T13:35:54.452Z,1.23
2022-09-20T13:38:24.996Z,1.20
2022-09-20T13:40:54.125Z,1.20
2022-09-20T13:43:29.195Z,1.30
2022-09-20T13:45:59.403Z,1.00
2022-09-20T13:48:29.108Z,1.10
2022-09-20T13:50:58.383Z,0.90
2022-09-20T13:53:41.245Z,0.93
2022-09-20T13:56:15.166Z,1.30
2022-09-20T13:58:44.570Z,1.10
2022-09-20T14:01:25.044Z,1.07
2022-09-20T14:03:54.891Z,1.33
2022-09-20T14:06:29.528Z,1.37
2022-09-20T14:09:00.050Z,0.90
2022-09-20T14:11:30.989Z,1.10
2022-09-20T14:14:02.854Z,1.07
2022-09-20T14:16:33.639Z,0.97
2022-09-20T14:19:04.175Z,1.20
2022-09-20T14:21:34.624Z,1.10
2022-09-20T14:24:06.416Z,1.30
2022-09-20T14:26:36.283Z,1.07
2022-09-20T14:29:30.542Z,0.80
2022-09-20T14:32:00.266Z,1.30
2022-09-20T14:34:28.568Z,1.10
2022-09-20T14:37:06.159Z,0.90
2022-09-20T14:39:35.817Z,0.90
2022-09-20T14:42:03.986Z,1.00
2022-09-20T14:44:34.676Z,1.00
2022-09-20T14:47:16.497Z,1.10
2022-09-20T14:49:45.206Z,1.00
2022-09-20T14:52:48.933Z,1.00
2022-09-20T14:55:36.921Z,0.90
2022-09-20T14:58:10.580Z,1.00
2022-09-20T15:00:52.369Z,1.00
2022-09-20T15:03:27.384Z,1.23
2022-09-20T15:05:55.837Z,1.30
2022-09-20T15:08:24.417Z,1.10
2022-09-20T15:10:52.455Z,0.80
2022-09-20T15:13:20.578Z,1.20
2022-09-20T15:15:52.206Z,1.08
2022-09-20T15:18:23.146Z,1.03
2022-09-20T15:20:51.594Z,0.80
2022-09-20T15:23:19.978Z,0.90
2022-09-20T15:25:51.712Z,1.07
2022-09-20T15:28:20.364Z,1.00
2022-09-20T15:30:51.357Z,1.30
2022-09-20T15:33:19.879Z,0.90
2022-09-20T15:35:48.629Z,1.07
2022-09-20T15:38:18.578Z,1.20
2022-09-20T15:40:48.528Z,1.40
2022-09-20T15:43:19.585Z,1.17
2022-09-20T15:45:51.471Z,1.00
2022-09-20T15:48:21.805Z,0.90
2022-09-20T15:51:03.457Z,1.57
2022-09-20T15:53:33.505Z,1.10
2022-09-20T15:56:02.594Z,0.93
2022-09-20T15:58:35.863Z,1.57
2022-09-20T16:01:07.965Z,0.93
2022-09-20T16:03:37.189Z,1.30
2022-09-20T16:06:08.373Z,1.27
2022-09-20T16:08:38.078Z,1.10
2022-09-20T16:11:08.170Z,1.13
2022-09-20T16:13:37.625Z,0.90
2022-09-20T16:16:08.372Z,1.20
2022-09-20T16:18:54.143Z,1.00
2022-09-20T16:21:22.876Z,1.20
2022-09-20T16:23:53.021Z,1.20
2022-09-20T16:26:22.358Z,1.17
2022-09-20T16:28:50.680Z,0.90
2022-09-20T16:31:36.672Z,0.80
2022-09-20T16:34:05.774Z,0.93
2022-09-20T16:36:34.523Z,0.87
2022-09-20T16:39:03.119Z,1.10
2022-09-20T16:41:32.387Z,1.00
2022-09-20T16:44:00.552Z,1.20
2022-09-20T16:46:28.852Z,0.90
2022-09-20T16:49:01.012Z,1.10
2022-09-20T16:51:33.490Z,0.90
2022-09-20T16:54:03.303Z,1.40
2022-09-20T16:56:34.804Z,2.13
2022-09-20T16:59:03.845Z,1.70
2022-09-20T17:01:32.650Z,3.07
2022-09-20T17:04:05.306Z,3.73
2022-09-20T17:06:35.199Z,4.80
2022-09-20T17:09:03.845Z,5.50
2022-09-20T17:11:33.885Z,5.00
2022-09-20T17:14:01.858Z,4.00
2022-09-20T17:16:31.433Z,4.47
2022-09-20T17:19:02.885Z,5.93
2022-09-20T17:21:31.314Z,6.03
2022-09-20T17:24:00.566Z,6.67
2022-09-20T17:26:31.393Z,5.97
2022-09-20T17:29:00.100Z,5.87
2022-09-20T17:31:32.262Z,4.80
2022-09-20T17:34:02.298Z,4.23
2022-09-20T17:36:31.710Z,3.53
2022-09-20T17:39:04.162Z,3.50
2022-09-20T17:41:33.796Z,3.27
2022-09-20T17:44:07.962Z,2.73
2022-09-20T17:46:37.290Z,2.13
2022-09-20T17:49:08.686Z,2.40
2022-09-20T17:51:38.333Z,1.83
2022-09-20T17:54:07.590Z,1.90
2022-09-20T17:56:36.360Z,1.70
2022-09-20T17:59:06.065Z,1.90
2022-09-20T18:01:37.553Z,2.07
2022-09-20T18:04:07.756Z,1.30
2022-09-20T18:06:37.705Z,1.17
2022-09-20T18:09:07.900Z,1.47
2022-09-20T18:11:38.130Z,1.30
2022-09-20T18:14:08.091Z,1.20
2022-09-20T18:16:37.080Z,1.97
2022-09-20T18:19:07.370Z,2.40
2022-09-20T18:21:36.575Z,2.70
2022-09-20T18:24:07.321Z,3.37
2022-09-20T18:26:36.241Z,3.77
2022-09-20T18:29:06.511Z,3.80
2022-09-20T18:31:36.876Z,4.47
2022-09-20T18:34:07.597Z,5.10
2022-09-20T18:36:39.371Z,5.50
2022-09-20T18:39:08.504Z,5.23
2022-09-20T18:41:38.187Z,7.33
2022-09-20T18:44:08.136Z,6.40
2022-09-20T18:46:38.741Z,7.57
2022-09-20T18:49:09.607Z,7.70
2022-09-20T18:51:40.142Z,7.50
2022-09-20T18:54:10.135Z,7.10
2022-09-20T18:56:39.721Z,7.07
2022-09-20T18:59:13.851Z,6.00
2022-09-20T19:02:10.808Z,6.03
2022-09-20T19:05:01.389Z,5.33
2022-09-20T19:07:39.065Z,5.30
2022-09-20T19:10:13.106Z,5.03
2022-09-20T19:12:48.222Z,4.87
2022-09-20T19:15:40.060Z,4.10
2022-09-20T19:18:24.066Z,4.33
2022-09-20T19:21:00.322Z,4.17
2022-09-20T19:23:48.655Z,3.40
2022-09-20T19:26:22.630Z,3.70
2022-09-20T19:28:52.160Z,3.40
2022-09-20T19:31:26.729Z,3.37
2022-09-20T19:33:58.801Z,2.90
2022-09-20T19:36:40.731Z,3.03
2022-09-20T19:39:17.878Z,3.20
2022-09-20T19:41:58.507Z,3.73
2022-09-20T19:44:35.787Z,2.90
2022-09-20T19:47:21.292Z,2.80
2022-09-20T19:49:55.222Z,2.67
2022-09-20T19:52:25.776Z,2.93
2022-09-20T19:54:54.436Z,3.37
2022-09-20T19:57:24.557Z,2.50
2022-09-20T19:59:53.078Z,2.90
2022-09-20T20:02:21.508Z,2.70
2022-09-20T20:04:49.940Z,1.93
2022-09-20T20:07:29.609Z,2.10
2022-09-20T20:10:05.030Z,2.33
2022-09-20T20:12:40.785Z,2.00
2022-09-20T20:15:22.360Z,2.00
2022-09-20T20:17:57.710Z,2.00
2022-09-20T20:20:33.841Z,1.77
2022-09-20T20:23:31.483Z,1.93
2022-09-20T20:26:05.806Z,2.17
2022-09-20T20:28:33.998Z,2.57
2022-09-20T20:31:03.182Z,2.40
2022-09-20T20:33:32.896Z,3.03
2022-09-20T20:36:02.733Z,2.73
2022-09-20T20:38:36.789Z,3.10
2022-09-20T20:41:07.004Z,2.93
2022-09-20T20:43:36.591Z,2.63
2022-09-20T20:46:05.720Z,2.63
2022-09-20T20:48:33.782Z,3.00
2022-09-20T20:51:03.870Z,2.83
2022-09-20T20:53:34.743Z,2.50
2022-09-20T20:56:08.254Z,2.37
2022-09-20T20:58:37.851Z,2.30
2022-09-20T21:01:10.293Z,2.30
2022-09-20T21:03:38.657Z,2.50
2022-09-20T21:06:07.329Z,3.07
2022-09-20T21:08:38.140Z,2.83
2022-09-20T21:11:08.511Z,3.80
2022-09-20T21:13:36.662Z,7.63
2022-09-20T21:16:10.026Z,10.30
2022-09-20T21:18:38.922Z,9.43
2022-09-20T21:21:15.448Z,9.80
2022-09-20T21:23:47.021Z,7.33
2022-09-20T21:26:16.266Z,6.50
2022-09-20T21:28:45.978Z,4.93
2022-09-20T21:31:15.373Z,4.53
2022-09-20T21:33:44.890Z,3.97
2022-09-20T21:36:14.324Z,3.93
2022-09-20T21:38:44.737Z,3.67
2022-09-20T21:41:14.413Z,3.40
2022-09-20T21:43:43.600Z,3.10
2022-09-20T21:46:12.873Z,3.10
2022-09-20T21:48:41.167Z,2.30
2022-09-20T21:51:10.749Z,2.57
2022-09-20T21:53:39.528Z,2.53
2022-09-20T21:56:10.142Z,2.60
2022-09-20T21:58:39.961Z,2.23
2022-09-20T22:01:11.605Z,1.90
2022-09-20T22:03:41.902Z,2.30
2022-09-20T22:06:12.298Z,2.30
2022-09-20T22:08:42.188Z,1.90
2022-09-20T22:11:14.890Z,2.27
2022-09-20T22:13:44.328Z,2.23
2022-09-20T22:16:13.918Z,2.10
2022-09-20T22:18:43.387Z,2.20
2022-09-20T22:21:13.266Z,2.37
2022-09-20T22:23:42.229Z,2.60
2022-09-20T22:26:13.488Z,2.80
2022-09-20T22:28:42.233Z,2.73
2022-09-20T22:31:12.147Z,2.63
2022-09-20T22:33:43.137Z,2.80
2022-09-20T22:36:14.071Z,2.60
2022-09-20T22:38:42.249Z,2.60
2022-09-20T22:41:13.013Z,2.60
2022-09-20T22:43:41.792Z,2.40
2022-09-20T22:46:11.553Z,2.60
2022-09-20T22:48:40.402Z,2.00
2022-09-20T22:51:11.017Z,2.73
2022-09-20T22:53:39.459Z,2.50
2022-09-20T22:56:09.667Z,2.67
2022-09-20T22:58:40.872Z,2.60
2022-09-20T23:01:11.874Z,2.63
2022-09-20T23:03:41.284Z,2.37
2022-09-20T23:06:14.128Z,3.00
2022-09-20T23:08:42.149Z,2.53
2022-09-20T23:11:10.432Z,2.40
2022-09-20T23:13:39.833Z,2.40
2022-09-20T23:16:12.542Z,2.90
2022-09-20T23:18:40.737Z,3.37
2022-09-20T23:21:09.188Z,4.17
2022-09-20T23:23:37.854Z,3.00
2022-09-20T23:26:08.511Z,3.13
2022-09-20T23:28:37.112Z,3.37
2022-09-20T23:31:09.143Z,3.00
2022-09-20T23:33:37.590Z,3.30
2022-09-20T23:36:08.274Z,3.13
2022-09-20T23:38:36.464Z,3.30
2022-09-20T23:41:04.955Z,3.33
2022-09-20T23:43:33.580Z,4.07
2022-09-20T23:46:02.085Z,4.90
2022-09-20T23:48:32.033Z,5.53
2022-09-20T23:51:00.390Z,5.10
2022-09-20T23:53:28.398Z,4.57
2022-09-20T23:55:56.814Z,3.47
2022-09-20T23:58:24.921Z,3.50
